Time;durP1;ratioP1;P1;durP2;ratioP2;P2;SDS_P1;SDS_P2;PMS_P1;PMS_P2;Temp;Humidity;BMP_temperature;BMP_pressure;BME280_temperature;BME280_humidity;BME280_pressure;Samples;Min_cycle;Max_cycle;Signal;HPM_P1;HPM_P2
2022/10/19 04:19:31;;;;;;;13.77;8.93;;;;;;;12.03;89.24;100913.50;6588337;26;20041;-85
2022/10/19 04:22:34;;;;;;;14.02;9.40;;;;;;;12.09;89.25;100918.19;6615709;26;33427;-86
2022/10/19 04:25:36;;;;;;;14.15;9.05;;;;;;;12.05;89.95;100916.88;6635994;26;34919;-86
2022/10/19 04:28:39;;;;;;;16.45;10.20;;;;;;;12.05;90.14;100922.28;6633913;26;33964;-85
2022/10/19 04:31:42;;;;;;;15.05;9.32;;;;;;;12.01;91.65;100929.00;6634463;26;34734;-86
2022/10/19 04:34:45;;;;;;;15.80;8.82;;;;;;;11.88;91.96;100918.78;6638255;26;33999;-86
2022/10/19 04:37:47;;;;;;;16.60;9.50;;;;;;;11.78;93.42;100924.31;6650308;26;34151;-85
2022/10/19 04:40:51;;;;;;;15.23;9.43;;;;;;;11.89;92.17;100919.63;6635717;26;34498;-86
2022/10/19 04:43:56;;;;;;;16.95;9.68;;;;;;;11.83;93.10;100920.28;6615377;26;32825;-85
2022/10/19 04:46:59;;;;;;;18.35;9.82;;;;;;;11.73;93.90;100918.63;6615468;26;33422;-85
2022/10/19 04:50:02;;;;;;;16.40;9.88;;;;;;;11.74;95.32;100917.59;6647071;26;33867;-85
2022/10/19 04:53:05;;;;;;;14.77;9.50;;;;;;;11.67;95.32;100918.44;6621572;26;32956;-85
2022/10/19 04:56:12;;;;;;;16.65;9.52;;;;;;;11.64;95.07;100922.34;6635120;26;34064;-89
2022/10/19 04:59:15;;;;;;;21.65;10.00;;;;;;;11.66;95.75;100911.37;6624581;26;32059;-89
2022/10/19 05:02:17;;;;;;;16.77;9.63;;;;;;;11.64;95.52;100925.03;6628182;26;32156;-85
2022/10/19 05:05:20;;;;;;;13.68;8.10;;;;;;;11.65;95.87;100920.50;6617000;26;33632;-85
2022/10/19 05:08:23;;;;;;;15.25;9.57;;;;;;;11.58;95.81;100915.78;6636913;26;34869;-85
2022/10/19 05:11:26;;;;;;;16.17;9.50;;;;;;;11.48;96.19;100925.06;6614464;26;32572;-85
2022/10/19 05:14:32;;;;;;;18.42;9.70;;;;;;;11.59;96.48;100927.41;6614495;26;32266;-84
2022/10/19 05:17:38;;;;;;;17.55;10.38;;;;;;;11.49;96.51;100924.87;6614920;26;32558;-84
2022/10/19 05:20:40;;;;;;;15.40;9.95;;;;;;;11.42;96.89;100917.66;6634174;26;33954;-85
2022/10/19 05:23:51;;;;;;;21.15;9.95;;;;;;;11.39;97.59;100921.53;6616716;26;33861;-85
2022/10/19 05:26:53;;;;;;;17.50;9.95;;;;;;;11.37;98.13;100937.03;6634954;26;35328;-85
2022/10/19 05:29:56;;;;;;;16.83;10.02;;;;;;;11.33;98.88;100935.69;6634984;26;34749;-84
2022/10/19 05:32:59;;;;;;;19.75;9.63;;;;;;;11.24;98.97;100942.09;6634934;26;34322;-85
2022/10/19 05:36:14;;;;;;;16.92;9.95;;;;;;;11.23;100.00;100946.66;6614534;26;32526;-85
2022/10/19 05:39:17;;;;;;;18.55;9.98;;;;;;;11.25;100.00;100952.69;6614695;26;32959;-84
2022/10/19 05:42:20;;;;;;;16.67;9.65;;;;;;;11.22;100.00;100962.97;6635235;26;33963;-84
2022/10/19 05:45:22;;;;;;;17.75;10.13;;;;;;;11.19;100.00;100971.41;6614645;26;32849;-84
2022/10/19 05:48:26;;;;;;;19.00;10.15;;;;;;;11.22;100.00;100971.91;6615209;26;32691;-84
2022/10/19 05:51:29;;;;;;;17.37;9.65;;;;;;;11.28;100.00;100965.00;6634261;26;34771;-85
2022/10/19 05:54:32;;;;;;;17.70;9.85;;;;;;;11.34;100.00;100969.72;6634952;26;35396;-84
2022/10/19 05:57:34;;;;;;;17.33;9.80;;;;;;;11.41;100.00;100967.16;6633269;26;34255;-84
2022/10/19 06:00:41;;;;;;;21.30;9.32;;;;;;;11.47;100.00;100969.22;6634600;26;34646;-84
2022/10/19 06:03:46;;;;;;;13.05;9.20;;;;;;;11.60;100.00;100979.47;6614012;26;32638;-84
2022/10/19 06:06:48;;;;;;;16.17;10.20;;;;;;;11.66;100.00;100982.34;6634608;26;34163;-85
2022/10/19 06:09:51;;;;;;;14.50;8.77;;;;;;;11.77;100.00;100992.78;6634701;26;33739;-85
2022/10/19 06:12:54;;;;;;;17.48;9.23;;;;;;;11.81;100.00;100982.47;6635047;26;34505;-84
2022/10/19 06:15:56;;;;;;;16.70;9.70;;;;;;;11.89;100.00;100985.22;6613918;26;33126;-84
2022/10/19 06:18:59;;;;;;;17.27;8.80;;;;;;;11.99;100.00;100999.37;6635105;26;34201;-84
2022/10/19 06:22:02;;;;;;;16.45;9.60;;;;;;;12.12;99.73;100998.00;6634443;26;34051;-84
2022/10/19 06:25:05;;;;;;;13.82;8.80;;;;;;;12.25;98.71;100995.56;6614207;26;32526;-84
2022/10/19 06:28:09;;;;;;;14.77;9.05;;;;;;;12.36;98.51;100999.75;6634691;26;34468;-84
2022/10/19 06:31:12;;;;;;;17.40;8.20;;;;;;;12.42;98.20;101004.47;6634331;26;34237;-84
2022/10/19 06:34:15;;;;;;;16.50;8.68;;;;;;;12.57;97.00;101004.56;6638590;26;34033;-84
2022/10/19 06:37:18;;;;;;;15.48;8.35;;;;;;;12.73;96.48;101009.06;6645284;26;33968;-84
2022/10/19 06:40:21;;;;;;;14.15;8.10;;;;;;;12.83;95.93;101012.38;6648094;26;34129;-84
2022/10/19 06:43:24;;;;;;;14.93;8.45;;;;;;;12.90;95.41;101018.78;6633827;26;34182;-84
2022/10/19 06:46:27;;;;;;;13.48;7.78;;;;;;;13.03;94.94;101012.78;6633833;26;34111;-84
2022/10/19 06:49:30;;;;;;;11.73;8.15;;;;;;;13.11;94.85;101018.97;6635018;26;33744;-84
2022/10/19 06:52:34;;;;;;;14.20;7.93;;;;;;;13.25;93.95;101024.63;6634494;26;34329;-84
2022/10/19 06:55:37;;;;;;;14.50;7.95;;;;;;;13.45;92.57;101035.84;6635224;26;33992;-84
2022/10/19 06:58:41;;;;;;;12.60;7.65;;;;;;;13.58;92.07;101033.37;6614066;26;32489;-88
2022/10/19 07:01:44;;;;;;;14.43;8.73;;;;;;;13.71;90.82;101028.19;6634827;26;34074;-88
2022/10/19 07:04:46;;;;;;;12.07;7.62;;;;;;;13.91;90.24;101042.06;6613827;26;33783;-88
2022/10/19 07:07:49;;;;;;;11.73;8.00;;;;;;;14.05;89.17;101043.13;6634362;26;34022;-89
2022/10/19 07:10:57;;;;;;;12.45;7.65;;;;;;;14.18;88.56;101043.31;6614380;26;33262;-84
2022/10/19 07:14:00;;;;;;;11.48;6.95;;;;;;;14.36;88.31;101061.06;6647754;26;33614;-84
2022/10/19 07:17:09;;;;;;;10.05;7.12;;;;;;;14.44;86.52;101066.41;6625449;26;33071;-84
2022/10/19 07:20:12;;;;;;;14.07;8.10;;;;;;;14.47;86.75;101064.16;6635128;26;34157;-84
2022/10/19 07:23:15;;;;;;;12.70;7.40;;;;;;;14.59;85.99;101061.84;6633745;26;34474;-84
2022/10/19 07:26:22;;;;;;;13.10;7.97;;;;;;;14.73;85.29;101076.44;6634536;26;34344;-84
2022/10/19 07:29:25;;;;;;;9.93;7.45;;;;;;;14.81;85.31;101080.91;6635024;26;33610;-84
2022/10/19 07:32:28;;;;;;;11.00;7.43;;;;;;;14.98;84.58;101081.56;6635795;26;34386;-85
2022/10/19 07:35:31;;;;;;;11.20;8.00;;;;;;;15.06;83.89;101074.13;6614828;26;32869;-85
2022/10/19 07:38:34;;;;;;;14.95;7.70;;;;;;;15.09;84.02;101073.78;6642106;26;34026;-85
2022/10/19 07:41:37;;;;;;;18.95;8.63;;;;;;;15.26;83.51;101082.50;6635707;26;33903;-85
2022/10/19 07:44:39;;;;;;;15.50;8.98;;;;;;;15.41;82.49;101080.63;6637976;26;34308;-87
2022/10/19 07:47:42;;;;;;;12.80;8.40;;;;;;;15.58;81.94;101083.91;6616510;26;32955;-85
2022/10/19 07:50:47;;;;;;;10.93;7.75;;;;;;;15.67;80.92;101079.19;6635819;26;33791;-86
2022/10/19 07:53:52;;;;;;;14.13;7.70;;;;;;;15.79;80.63;101055.94;6634589;26;33869;-86
2022/10/19 07:56:54;;;;;;;13.05;8.48;;;;;;;15.83;80.76;101059.12;6605719;26;32963;-86
2022/10/19 07:59:57;;;;;;;14.45;7.90;;;;;;;15.89;80.09;101065.62;6611333;27;32328;-86
2022/10/19 08:03:00;;;;;;;12.43;7.75;;;;;;;15.83;80.23;101064.53;6608843;26;33984;-85
2022/10/19 08:06:26;;;;;;;13.80;8.27;;;;;;;15.97;79.88;101065.47;6608100;27;34302;-86
2022/10/19 08:09:29;;;;;;;12.43;7.53;;;;;;;16.04;79.29;101067.22;6610608;26;34935;-86
2022/10/19 08:12:52;;;;;;;11.85;7.37;;;;;;;16.17;78.42;101058.31;6613702;27;33788;-86
2022/10/19 08:15:54;;;;;;;9.73;7.53;;;;;;;16.15;78.03;101054.97;6614593;26;33668;-86
2022/10/19 08:19:03;;;;;;;10.95;7.70;;;;;;;16.32;77.66;101060.94;6623080;26;32841;-86
2022/10/19 08:22:08;;;;;;;13.20;7.25;;;;;;;16.40;77.21;101054.50;6628025;26;34744;-88
2022/10/19 08:25:13;;;;;;;12.07;7.93;;;;;;;16.65;76.12;101057.59;6622448;26;34650;-86
2022/10/19 08:28:16;;;;;;;10.57;7.15;;;;;;;16.75;75.84;101063.50;6617208;26;34891;-87
2022/10/19 08:31:21;;;;;;;15.30;7.93;;;;;;;16.82;75.53;101061.69;6608322;26;35123;-87
2022/10/19 08:34:24;;;;;;;8.98;6.53;;;;;;;16.88;75.49;101058.16;6620430;26;33529;-87
2022/10/19 08:41:38;;;;;;;10.27;6.25;;;;;;;17.04;75.11;101058.84;6604093;26;20029;-87
2022/10/19 08:44:51;;;;;;;11.30;6.32;;;;;;;17.39;72.67;101057.69;6617919;26;33913;-87
2022/10/19 08:56:32;;;;;;;8.88;4.12;;;;;;;17.97;69.56;101059.88;6588608;26;20046;-86
2022/10/19 10:28:45;;;;;;;3.72;3.17;;;;;;;21.37;54.09;101001.69;6609413;26;20079;-88
2022/10/19 10:31:57;;;;;;;3.58;2.92;;;;;;;22.01;50.45;101007.38;6634515;26;34621;-87
2022/10/19 10:35:17;;;;;;;2.20;2.00;;;;;;;22.30;50.42;101004.78;6634346;26;34793;-87
2022/10/19 10:38:32;;;;;;;1.70;1.60;;;;;;;22.08;47.22;100993.53;6635474;26;34549;-87
2022/10/19 10:41:39;;;;;;;2.55;1.48;;;;;;;21.47;47.12;100991.00;6634784;26;33889;-86
2022/10/19 10:44:49;;;;;;;3.67;1.42;;;;;;;21.40;46.27;100992.16;6634601;26;34470;-87
2022/10/19 10:47:52;;;;;;;1.27;1.17;;;;;;;21.56;45.03;100994.25;6614250;26;32280;-87
2022/10/19 10:50:58;;;;;;;1.48;1.20;;;;;;;21.67;44.14;100989.84;6635393;26;34508;-87
2022/10/19 10:54:18;;;;;;;1.85;1.00;;;;;;;21.54;43.56;100998.28;6634994;26;34839;-87
2022/10/19 10:57:24;;;;;;;1.65;1.55;;;;;;;21.54;42.82;100990.06;6633027;26;33888;-87
2022/10/19 11:00:28;;;;;;;3.35;1.50;;;;;;;21.44;44.40;100982.41;6614687;26;32775;-87
2022/10/19 11:03:45;;;;;;;2.25;1.87;;;;;;;21.92;44.58;100973.16;6612625;26;32796;-87
2022/10/19 11:06:55;;;;;;;3.00;1.87;;;;;;;21.61;45.30;100966.94;6634360;26;34120;-91
2022/10/19 11:10:08;;;;;;;2.65;1.77;;;;;;;21.89;44.06;100971.75;6633552;26;34407;-87
2022/10/19 11:13:44;;;;;;;2.00;1.80;;;;;;;22.14;43.52;100962.41;6633933;26;34880;-85
2022/10/19 11:16:51;;;;;;;1.55;1.45;;;;;;;22.39;42.35;100962.19;6633515;26;34900;-85
2022/10/19 11:19:53;;;;;;;1.42;1.33;;;;;;;22.96;39.90;100947.69;6634127;26;33765;-85
2022/10/19 11:23:19;;;;;;;2.87;1.62;;;;;;;23.17;38.86;100952.50;6634146;26;34898;-85
2022/10/19 11:26:46;;;;;;;1.20;1.10;;;;;;;23.26;37.05;100950.16;6633179;26;34093;-85
2022/10/19 11:30:16;;;;;;;2.80;1.20;;;;;;;24.23;35.36;100948.94;6606465;26;191392;-85
2022/10/19 11:33:30;;;;;;;3.72;1.30;;;;;;;24.60;33.74;100943.66;6635655;26;34720;-85
2022/10/19 11:36:56;;;;;;;2.60;1.42;;;;;;;24.62;33.52;100938.72;6634058;26;34075;-85
2022/10/19 11:40:12;;;;;;;2.33;1.33;;;;;;;24.81;34.11;100938.37;6634658;26;35317;-85
2022/10/19 11:43:45;;;;;;;2.47;1.67;;;;;;;25.57;33.05;100941.03;6635725;26;33718;-85
2022/10/19 11:46:53;;;;;;;1.73;0.98;;;;;;;26.22;31.20;100936.22;6635696;26;34147;-85
2022/10/19 11:50:15;;;;;;;1.00;1.00;;;;;;;28.37;28.01;100933.62;6645634;26;34742;-86
2022/10/19 11:53:27;;;;;;;1.45;1.23;;;;;;;29.86;26.45;100937.06;6645435;26;35088;-85
2022/10/19 11:56:37;;;;;;;1.10;1.00;;;;;;;29.41;26.35;100930.00;6611386;26;32954;-86
2022/10/19 12:00:18;;;;;;;1.58;0.70;;;;;;;29.72;25.81;100922.22;6633231;26;33764;-85
2022/10/19 12:03:53;;;;;;;3.90;1.20;;;;;;;30.68;24.79;100922.19;6614012;26;32967;-90
2022/10/19 12:07:27;;;;;;;2.28;1.02;;;;;;;30.48;24.42;100918.59;6633098;26;34180;-86
2022/10/19 12:11:06;;;;;;;2.28;0.88;;;;;;;30.32;24.95;100927.41;6613577;26;33919;-86
2022/10/19 12:14:20;;;;;;;1.17;0.90;;;;;;;30.85;24.76;100927.28;6563218;26;33843;-86
2022/10/19 12:17:29;;;;;;;1.20;0.90;;;;;;;32.44;23.24;100900.19;6634184;26;34658;-86
2022/10/19 12:20:49;;;;;;;1.42;0.68;;;;;;;31.75;22.92;100900.19;6635424;26;33805;-86
2022/10/19 12:23:54;;;;;;;1.08;0.73;;;;;;;32.34;21.85;100901.25;6633615;26;34136;-85
2022/10/19 12:26:59;;;;;;;2.47;0.98;;;;;;;31.38;21.99;100902.78;6614044;26;32508;-86
2022/10/19 12:30:07;;;;;;;0.80;0.80;;;;;;;30.32;22.92;100903.25;6618451;26;32754;-85
2022/10/19 12:33:19;;;;;;;1.23;1.12;;;;;;;30.88;22.19;100890.53;6642234;26;34261;-85
2022/10/19 12:36:30;;;;;;;1.17;1.08;;;;;;;30.23;23.07;100894.75;6643160;26;33887;-85
2022/10/19 12:39:36;;;;;;;2.90;1.12;;;;;;;28.70;25.41;100902.47;6639931;26;36540;-89
2022/10/19 12:43:09;;;;;;;2.33;1.00;;;;;;;26.77;27.24;100893.38;6614141;26;33718;-86
2022/10/19 12:46:28;;;;;;;1.33;1.20;;;;;;;24.51;31.42;100892.91;6633933;26;34109;-85
2022/10/19 12:49:44;;;;;;;4.75;1.35;;;;;;;23.46;33.99;100880.97;6633736;26;34330;-85
2022/10/19 12:52:51;;;;;;;2.00;1.20;;;;;;;22.45;35.58;100884.37;6613660;26;33008;-85
2022/10/19 12:56:04;;;;;;;4.40;1.70;;;;;;;21.92;36.27;100885.44;6633871;26;35312;-85
2022/10/19 12:59:32;;;;;;;1.80;1.33;;;;;;;21.06;37.54;100885.03;6633796;26;33783;-85
2022/10/19 13:02:38;;;;;;;1.50;1.40;;;;;;;20.42;38.96;100883.81;6637009;26;34239;-85
2022/10/19 13:05:41;;;;;;;2.53;1.70;;;;;;;19.89;41.46;100871.59;6634840;26;35460;-85
2022/10/19 13:08:56;;;;;;;1.60;1.50;;;;;;;19.65;42.18;100876.91;6620990;26;32838;-85
2022/10/19 13:12:14;;;;;;;3.15;1.65;;;;;;;19.64;39.62;100868.91;6629511;26;33680;-83
2022/10/19 13:15:33;;;;;;;1.70;1.60;;;;;;;19.39;40.49;100871.66;6650929;26;35305;-88
2022/10/19 13:19:02;;;;;;;1.73;1.62;;;;;;;19.35;40.98;100863.09;6614286;26;32806;-85
2022/10/19 13:22:32;;;;;;;4.18;2.20;;;;;;;18.99;41.80;100872.00;6634428;26;35355;-84
2022/10/19 13:25:36;;;;;;;2.22;1.77;;;;;;;18.90;42.35;100860.53;6609793;26;33903;-84
2022/10/19 13:28:52;;;;;;;6.28;1.90;;;;;;;18.77;42.32;100861.44;6633820;26;34156;-84
2022/10/19 13:31:54;;;;;;;2.87;1.80;;;;;;;18.85;42.22;100878.63;6614506;26;32580;-84
2022/10/19 13:35:37;;;;;;;2.65;1.70;;;;;;;18.70;42.10;100874.28;6614236;26;33072;-84
2022/10/19 13:38:58;;;;;;;3.33;1.58;;;;;;;18.57;41.63;100888.81;6633822;26;34201;-84
2022/10/19 13:42:01;;;;;;;1.80;1.70;;;;;;;18.43;39.70;100894.53;6634172;26;35369;-84
2022/10/19 13:45:04;;;;;;;1.70;1.60;;;;;;;18.18;41.23;100881.66;6613801;26;32379;-84
2022/10/19 13:48:33;;;;;;;2.03;1.92;;;;;;;18.17;42.74;100887.34;6633639;26;34012;-83
2022/10/19 13:51:48;;;;;;;4.28;2.00;;;;;;;18.17;42.82;100896.34;6566722;26;32345;-84
2022/10/19 13:55:09;;;;;;;2.47;1.80;;;;;;;18.02;43.63;100895.78;6633855;26;34744;-85
2022/10/19 13:58:49;;;;;;;2.22;2.03;;;;;;;17.89;43.22;100893.91;6613043;26;33771;-84
2022/10/19 14:02:22;;;;;;;2.60;2.15;;;;;;;17.87;43.69;100890.53;6614121;26;32636;-84
2022/10/19 14:05:40;;;;;;;3.30;2.03;;;;;;;17.79;44.16;100886.19;6633953;26;33846;-84
2022/10/19 14:09:04;;;;;;;3.62;2.50;;;;;;;17.76;44.93;100893.91;6634643;26;34220;-84
2022/10/19 14:12:15;;;;;;;3.22;2.50;;;;;;;17.63;45.26;100892.03;6633776;26;34536;-88
2022/10/19 14:15:27;;;;;;;2.83;2.37;;;;;;;17.49;46.24;100888.50;6614170;26;32669;-85
2022/10/19 14:18:32;;;;;;;2.80;2.40;;;;;;;17.47;47.23;100889.78;6637358;26;35026;-84
2022/10/19 14:21:35;;;;;;;3.85;2.70;;;;;;;17.42;47.29;100893.94;6641516;26;34167;-83
2022/10/19 14:24:38;;;;;;;4.85;2.50;;;;;;;17.38;47.01;100886.41;6636675;26;34218;-84
2022/10/19 14:27:41;;;;;;;2.60;2.40;;;;;;;17.33;48.63;100895.19;6630943;26;32013;-84
2022/10/19 14:30:53;;;;;;;3.50;2.90;;;;;;;17.27;48.76;100896.03;6641092;26;34457;-84
2022/10/19 14:34:00;;;;;;;5.10;2.50;;;;;;;17.13;49.34;100897.09;6635973;26;34253;-84
2022/10/19 14:37:11;;;;;;;5.57;2.65;;;;;;;17.07;49.61;100903.34;6639043;26;34467;-85
2022/10/19 14:40:21;;;;;;;5.15;2.97;;;;;;;17.00;49.26;100896.03;6635935;26;34302;-85
2022/10/19 14:43:31;;;;;;;3.65;2.75;;;;;;;16.90;49.12;100895.59;6614321;26;32981;-84
2022/10/19 14:46:34;;;;;;;3.00;2.67;;;;;;;16.87;49.23;100890.56;6624945;26;32162;-85
2022/10/19 14:49:37;;;;;;;3.65;2.40;;;;;;;16.76;49.57;100891.19;6637251;26;34411;-85
2022/10/19 14:52:40;;;;;;;3.20;2.30;;;;;;;16.66;48.16;100899.69;6635155;26;34002;-86
2022/10/19 14:55:43;;;;;;;3.95;2.62;;;;;;;16.59;47.96;100887.97;6633755;26;33993;-85
2022/10/19 14:58:54;;;;;;;3.67;2.70;;;;;;;16.53;48.15;100894.22;6619479;26;32820;-85
2022/10/19 15:02:02;;;;;;;3.78;2.17;;;;;;;16.50;47.37;100887.31;6613802;26;33207;-85
2022/10/19 15:05:18;;;;;;;2.80;2.37;;;;;;;16.41;47.11;100876.81;6633379;26;33967;-85
2022/10/19 15:08:47;;;;;;;2.65;2.40;;;;;;;16.37;46.76;100887.25;6612905;26;32496;-85
2022/10/19 15:11:52;;;;;;;;;;;;;;;16.21;46.95;100884.91;6638024;26;34561;-85
2022/10/19 15:14:56;;;;;;;2.17;2.00;;;;;;;16.18;47.54;100886.16;6636321;26;34144;-85
2022/10/19 15:17:59;;;;;;;4.28;2.10;;;;;;;16.06;47.94;100885.88;6618683;26;32465;-85
2022/10/19 15:21:17;;;;;;;6.00;2.87;;;;;;;15.95;48.66;100885.63;6625738;26;34067;-86
2022/10/19 15:24:28;;;;;;;5.95;2.60;;;;;;;15.85;49.18;100885.97;6635351;26;33849;-85
2022/10/19 15:27:35;;;;;;;8.65;2.83;;;;;;;15.83;48.98;100898.91;6614391;26;33256;-85
2022/10/19 15:30:40;;;;;;;3.90;2.60;;;;;;;15.69;49.65;100903.41;6614734;26;32741;-85
2022/10/19 15:33:50;;;;;;;2.40;2.20;;;;;;;15.55;50.00;100897.00;6634780;26;34097;-85
2022/10/19 15:36:58;;;;;;;2.75;2.05;;;;;;;15.47;49.96;100899.88;6615811;26;33177;-85
2022/10/19 15:40:09;;;;;;;3.70;2.67;;;;;;;15.45;49.87;100880.25;6618132;26;33777;-85
2022/10/19 15:43:31;;;;;;;2.80;2.40;;;;;;;15.37;50.86;100877.69;6638429;26;34952;-85
2022/10/19 15:47:11;;;;;;;5.35;2.60;;;;;;;15.24;51.10;100886.56;6641708;26;33962;-85
2022/10/19 15:50:31;;;;;;;4.65;2.70;;;;;;;15.10;51.32;100898.34;6618290;26;32254;-85
2022/10/19 15:53:33;;;;;;;3.50;2.62;;;;;;;15.01;51.73;100913.06;6637639;26;33894;-85
